Time;durP1;ratioP1;P1;durP2;ratioP2;P2;SDS_P1;SDS_P2;PMS_P1;PMS_P2;Temp;Humidity;BMP_temperature;BMP_pressure;BME280_temperature;BME280_humidity;BME280_pressure;Samples;Min_cycle;Max_cycle;Signal;HPM_P1;HPM_P2
2021/06/12 00:00:30;;;;;;;10.20;8.10;;;19.20;66.70;;;18.29;63.38;96285.25;5006765;23;20452;-69
2021/06/12 00:02:57;;;;;;;10.93;8.02;;;19.10;66.70;;;18.24;64.18;96287.78;4977947;28;20033;-69
2021/06/12 00:05:23;;;;;;;8.43;7.53;;;19.10;67.10;;;18.22;63.35;96288.03;4974786;28;20345;-70
2021/06/12 00:07:49;;;;;;;7.22;6.53;;;19.10;67.10;;;18.19;63.58;96285.03;4988537;28;20426;-70
2021/06/12 00:10:22;;;;;;;10.10;7.38;;;19.10;67.40;;;18.18;64.72;96286.06;5002020;28;20032;-69
2021/06/12 00:12:48;;;;;;;9.20;7.43;;;19.00;67.40;;;18.14;63.72;96279.59;5015966;28;20087;-70
2021/06/12 00:15:14;;;;;;;9.48;7.30;;;19.00;67.50;;;18.12;64.20;96282.50;5014519;28;20079;-70
2021/06/12 00:17:40;;;;;;;8.15;7.32;;;19.00;67.20;;;18.09;64.06;96277.59;5015062;28;20496;-69
2021/06/12 00:20:08;;;;;;;10.25;7.93;;;19.00;67.30;;;18.06;64.22;96278.06;5010857;28;20116;-70
2021/06/12 00:22:34;;;;;;;11.25;8.07;;;18.90;67.20;;;18.03;64.17;96278.53;4993148;28;20037;-71
2021/06/12 00:25:00;;;;;;;10.40;7.53;;;18.90;67.20;;;18.00;63.71;96274.47;4979145;28;20054;-70
2021/06/12 00:27:25;;;;;;;9.60;7.43;;;18.90;67.30;;;17.96;64.35;96283.16;4979470;28;20073;-70
2021/06/12 00:29:52;;;;;;;8.32;7.40;;;18.90;67.40;;;17.92;63.99;96282.00;5010534;28;20030;-69
2021/06/12 00:32:18;;;;;;;9.55;7.72;;;18.80;67.60;;;17.89;64.41;96285.13;5014799;28;20043;-69
2021/06/12 00:34:43;;;;;;;11.52;8.00;;;18.80;67.80;;;17.85;65.19;96286.63;4995729;28;20121;-70
2021/06/12 00:37:09;;;;;;;13.30;8.07;;;18.80;68.00;;;17.83;64.82;96283.38;4990331;28;20056;-70
2021/06/12 00:39:35;;;;;;;9.50;7.90;;;18.70;68.20;;;17.75;64.74;96288.00;5032300;28;20176;-69
2021/06/12 00:42:01;;;;;;;8.00;7.20;;;18.50;68.60;;;17.69;65.06;96288.94;4979373;28;20065;-70
2021/06/12 00:44:26;;;;;;;8.93;7.78;;;18.50;68.70;;;17.67;65.13;96291.00;4999371;28;20034;-70
2021/06/12 00:46:52;;;;;;;8.63;7.72;;;18.60;68.90;;;17.67;65.50;96284.84;5008462;28;20037;-70
2021/06/12 00:49:20;;;;;;;12.32;7.78;;;18.60;69.00;;;17.66;65.03;96280.56;5003546;28;20107;-70
2021/06/12 00:51:45;;;;;;;9.05;8.15;;;18.60;68.60;;;17.62;65.65;96287.34;5015538;28;20056;-70
2021/06/12 00:54:11;;;;;;;9.70;7.85;;;18.60;68.90;;;17.59;65.36;96285.97;4996645;28;20157;-69
2021/06/12 00:56:37;;;;;;;11.32;8.23;;;18.40;69.20;;;17.56;65.86;96293.59;4997934;28;20052;-71
2021/06/12 00:59:03;;;;;;;9.10;8.20;;;18.40;69.60;;;17.57;66.16;96290.72;4994287;28;20053;-70
2021/06/12 01:01:28;;;;;;;9.10;8.05;;;18.60;69.60;;;17.57;66.33;96288.03;4982297;28;20026;-70
2021/06/12 01:03:54;;;;;;;9.95;8.15;;;18.60;69.50;;;17.56;65.72;96297.06;4978863;28;20113;-70
2021/06/12 01:06:20;;;;;;;9.35;8.38;;;18.60;69.70;;;17.56;66.10;96296.25;5029150;28;20060;-70
2021/06/12 01:08:46;;;;;;;10.13;8.80;;;18.60;69.60;;;17.56;66.03;96298.91;5028999;28;20026;-69
2021/06/12 01:11:12;;;;;;;9.90;8.45;;;18.60;69.60;;;17.56;65.94;96293.59;5010197;28;20481;-70
2021/06/12 01:14:14;;;;;;;9.60;8.32;;;18.60;69.80;;;17.57;67.67;96290.72;4997409;28;20030;-70
2021/06/12 01:17:33;;;;;;;10.05;8.20;;;18.60;69.70;;;17.57;67.99;96290.72;5013857;28;20033;-70
2021/06/12 01:20:42;;;;;;;11.10;8.18;;;18.60;69.90;;;17.54;68.06;96290.34;5024700;28;20417;-70
2021/06/12 01:23:31;;;;;;;10.15;9.00;;;18.60;70.20;;;17.51;67.68;96288.97;5005712;28;20025;-69
2021/06/12 01:26:24;;;;;;;18.70;8.75;;;18.60;70.40;;;17.51;68.19;96290.81;5013167;28;20033;-70
2021/06/12 01:29:22;;;;;;;10.55;8.07;;;18.50;70.50;;;17.48;68.50;96294.75;5029598;28;20428;-69
2021/06/12 01:31:49;;;;;;;10.55;8.50;;;18.50;70.60;;;17.48;67.00;96283.28;5005921;28;20060;-70
2021/06/12 01:34:15;;;;;;;9.52;8.52;;;18.50;70.40;;;17.44;66.97;96280.28;4999829;28;20053;-69
2021/06/12 01:36:41;;;;;;;10.07;8.85;;;18.40;70.70;;;17.39;67.47;96283.59;4995960;28;20133;-70
2021/06/12 01:39:07;;;;;;;9.38;8.38;;;18.20;71.00;;;17.37;66.85;96276.88;4987650;28;20396;-69
2021/06/12 01:41:32;;;;;;;10.00;8.13;;;18.30;71.20;;;17.33;68.27;96273.06;5010938;28;20049;-70
2021/06/12 01:43:58;;;;;;;10.40;9.35;;;18.20;71.50;;;17.31;67.41;96267.16;4987923;28;20580;-70
2021/06/12 01:46:24;;;;;;;10.38;9.38;;;18.20;71.30;;;17.29;67.41;96261.28;5010171;28;20410;-69
2021/06/12 01:48:50;;;;;;;11.35;9.73;;;18.30;71.30;;;17.29;68.20;96269.25;5017315;28;20049;-69
2021/06/12 01:51:16;;;;;;;13.30;10.23;;;18.30;71.60;;;17.27;68.03;96269.47;5013578;28;20025;-70
2021/06/12 01:53:42;;;;;;;11.15;8.60;;;18.30;71.60;;;17.26;68.43;96267.03;5001568;28;20033;-70
2021/06/12 01:56:10;;;;;;;10.90;8.60;;;18.30;71.60;;;17.25;68.27;96265.44;5009617;28;20029;-70
2021/06/12 01:58:39;;;;;;;10.10;8.10;;;18.20;71.90;;;17.25;68.62;96270.75;5002701;28;20416;-71
2021/06/12 02:01:07;;;;;;;12.85;8.13;;;18.30;71.50;;;17.22;68.86;96266.69;4991910;28;20147;-70
2021/06/12 02:03:33;;;;;;;8.73;7.82;;;18.10;71.90;;;17.20;68.69;96266.09;4987943;28;20494;-70
2021/06/12 02:05:59;;;;;;;9.60;8.60;;;18.20;72.00;;;17.18;68.30;96264.69;5017088;28;20115;-71
2021/06/12 02:08:25;;;;;;;12.45;10.13;;;18.10;72.10;;;17.13;68.94;96263.53;5010706;28;20083;-69
2021/06/12 02:10:51;;;;;;;11.88;9.52;;;18.10;72.30;;;17.10;68.33;96266.63;4997732;28;20477;-70
2021/06/12 02:13:20;;;;;;;11.32;9.18;;;18.10;72.20;;;17.04;69.23;96264.88;5004791;28;20493;-68
2021/06/12 02:15:46;;;;;;;11.32;8.52;;;18.00;72.70;;;17.00;69.26;96262.91;4994591;28;20030;-70
2021/06/12 02:18:11;;;;;;;10.05;8.68;;;17.90;73.00;;;16.95;68.77;96268.88;5012923;28;20113;-70
2021/06/12 02:20:38;;;;;;;10.13;9.00;;;17.80;73.20;;;16.88;69.08;96275.31;5012152;28;20033;-70
2021/06/12 02:23:05;;;;;;;9.77;8.77;;;17.70;73.70;;;16.80;69.56;96269.28;4996425;28;20044;-70
2021/06/12 02:25:31;;;;;;;10.05;9.00;;;17.60;74.10;;;16.76;69.45;96267.31;5012760;28;20029;-70
2021/06/12 02:28:00;;;;;;;15.73;9.60;;;17.70;74.10;;;16.72;70.36;96266.09;4966341;28;20448;-70
2021/06/12 02:30:29;;;;;;;11.65;9.40;;;17.70;73.90;;;16.64;70.90;96261.06;4985763;28;20026;-70
2021/06/12 02:33:00;;;;;;;11.85;9.20;;;17.50;74.40;;;16.61;70.79;96258.88;4996924;28;20207;-71
2021/06/12 02:35:26;;;;;;;9.45;8.48;;;17.60;74.20;;;16.55;70.48;96263.25;4980170;28;20033;-70
2021/06/12 02:37:52;;;;;;;11.68;9.45;;;17.40;74.50;;;16.47;70.35;96259.00;5007404;28;20100;-70
2021/06/12 02:40:18;;;;;;;11.48;8.80;;;17.30;74.60;;;16.45;70.22;96261.09;4982425;28;20021;-70
2021/06/12 02:42:44;;;;;;;10.35;9.23;;;17.50;74.40;;;16.42;69.63;96261.53;4988356;28;20056;-70
2021/06/12 02:45:10;;;;;;;9.18;8.10;;;17.50;74.20;;;16.43;70.20;96262.34;5008693;28;20168;-70
2021/06/12 02:47:41;;;;;;;9.02;8.05;;;17.50;74.20;;;16.44;71.63;96253.34;4976609;28;20038;-69
2021/06/12 02:50:08;;;;;;;9.35;7.93;;;17.50;74.30;;;16.43;71.13;96257.84;4998144;28;20041;-69
2021/06/12 02:52:34;;;;;;;8.57;7.70;;;17.40;74.40;;;16.43;70.63;96257.84;4992001;28;20441;-71
2021/06/12 02:55:04;;;;;;;12.45;8.00;;;17.40;74.40;;;16.41;71.25;96267.06;4996367;28;20109;-70
2021/06/12 02:57:30;;;;;;;10.38;8.35;;;17.30;75.10;;;16.38;70.25;96257.69;5009925;28;20052;-70
2021/06/12 02:59:56;;;;;;;8.85;7.95;;;17.40;74.80;;;16.37;71.00;96264.03;5012331;28;20029;-69
2021/06/12 03:02:22;;;;;;;10.38;8.30;;;17.40;74.80;;;16.35;70.98;96262.66;4996568;28;20054;-70
2021/06/12 03:04:48;;;;;;;10.55;7.97;;;17.30;75.00;;;16.34;71.66;96264.50;5007839;28;20052;-70
2021/06/12 03:07:14;;;;;;;9.15;7.72;;;17.40;75.00;;;16.32;71.35;96261.25;4992719;28;20444;-70
2021/06/12 03:09:41;;;;;;;10.75;8.40;;;17.30;75.20;;;16.31;72.10;96264.13;4991910;28;20430;-69
2021/06/12 03:12:08;;;;;;;10.13;7.75;;;17.30;75.20;;;16.30;71.33;96267.81;5017787;28;20034;-70
2021/06/12 03:14:33;;;;;;;9.90;8.93;;;17.30;75.30;;;16.27;71.61;96266.38;5003363;28;20035;-70
2021/06/12 03:16:59;;;;;;;11.10;9.73;;;17.30;75.50;;;16.28;71.21;96272.50;4994220;28;21911;-69
2021/06/12 03:19:25;;;;;;;11.52;10.32;;;17.30;75.50;;;16.29;71.59;96264.31;5007399;28;20394;-70
2021/06/12 03:21:51;;;;;;;10.70;9.48;;;17.40;75.60;;;16.29;71.16;96272.28;4992919;28;20536;-69
2021/06/12 03:24:17;;;;;;;13.73;11.10;;;17.30;75.90;;;16.29;72.48;96272.28;5011601;28;20060;-69
2021/06/12 03:26:42;;;;;;;24.58;21.88;;;17.40;75.60;;;16.30;72.12;96273.94;5011467;28;20033;-70
2021/06/12 03:29:09;;;;;;;14.95;13.35;;;17.40;75.70;;;16.32;72.02;96279.03;5008372;28;20038;-71
2021/06/12 03:31:34;;;;;;;18.27;12.00;;;17.40;75.40;;;16.31;71.64;96275.56;4991898;28;20124;-70
2021/06/12 03:34:00;;;;;;;11.57;9.30;;;17.40;75.50;;;16.31;71.80;96272.91;5008172;28;20216;-72
2021/06/12 03:36:27;;;;;;;10.70;9.63;;;17.50;75.40;;;16.34;72.25;96280.41;5018664;28;20057;-72
2021/06/12 03:38:53;;;;;;;12.05;10.82;;;17.50;75.30;;;16.34;71.66;96280.41;4996139;28;20037;-68
2021/06/12 03:41:19;;;;;;;10.40;9.30;;;17.50;75.40;;;16.32;72.21;96281.66;5006285;28;20392;-69
2021/06/12 03:43:46;;;;;;;14.25;9.35;;;17.40;75.60;;;16.32;72.00;96279.03;5015769;28;20120;-70
2021/06/12 03:46:13;;;;;;;9.75;8.35;;;17.50;75.50;;;16.32;72.62;96279.84;5015522;28;20025;-72
2021/06/12 03:48:39;;;;;;;9.98;8.98;;;17.50;75.50;;;16.31;72.63;96272.91;5014091;28;20044;-70
2021/06/12 03:51:05;;;;;;;9.95;8.52;;;17.50;75.50;;;16.30;72.36;96273.94;5011727;28;20030;-70
2021/06/12 03:53:31;;;;;;;9.02;8.10;;;17.40;75.50;;;16.25;72.53;96276.41;5005089;28;20060;-70
2021/06/12 03:55:58;;;;;;;9.50;8.27;;;17.30;76.00;;;16.21;72.45;96277.88;5015556;28;20104;-71
2021/06/12 03:58:24;;;;;;;8.55;7.63;;;17.20;76.30;;;16.18;72.96;96275.69;5023871;28;20037;-70
2021/06/12 04:00:50;;;;;;;9.23;8.32;;;17.30;76.20;;;16.18;71.97;96276.50;5000573;28;20033;-70
2021/06/12 04:03:16;;;;;;;10.23;8.77;;;17.20;76.10;;;16.13;72.54;96283.50;5033980;28;20033;-70
2021/06/12 04:05:41;;;;;;;9.18;8.27;;;17.20;76.30;;;16.10;73.48;96283.94;4998273;28;20196;-70
2021/06/12 04:08:07;;;;;;;10.55;8.27;;;17.10;76.70;;;16.09;73.05;96282.31;5011714;28;20038;-70
2021/06/12 04:10:33;;;;;;;9.75;8.75;;;17.10;76.50;;;16.10;73.14;96286.59;5014567;28;20053;-70
2021/06/12 04:12:58;;;;;;;8.77;7.93;;;17.30;76.40;;;16.10;73.81;96289.25;5011312;28;20087;-70
2021/06/12 04:15:24;;;;;;;10.43;8.13;;;17.30;76.40;;;16.13;74.01;96291.44;5014245;28;20064;-70
2021/06/12 04:17:58;;;;;;;10.10;7.95;;;17.40;76.30;;;16.20;73.67;96289.53;5003208;28;20046;-70
2021/06/12 04:20:24;;;;;;;9.75;8.38;;;17.50;76.00;;;16.25;74.03;96287.03;4996171;28;20056;-68
2021/06/12 04:22:50;;;;;;;9.43;8.43;;;17.60;75.80;;;16.29;72.66;96292.69;5013210;28;20484;-72
2021/06/12 04:25:15;;;;;;;9.90;7.90;;;17.60;75.70;;;16.35;73.55;96295.31;5010690;28;20121;-76
2021/06/12 04:27:41;;;;;;;8.82;7.88;;;17.70;75.30;;;16.37;73.06;96292.44;4999025;28;20128;-70
2021/06/12 04:30:08;;;;;;;9.30;7.65;;;17.60;75.20;;;16.44;73.49;96298.47;4980822;28;20089;-70
2021/06/12 04:32:33;;;;;;;19.95;13.93;;;17.70;75.10;;;16.47;72.86;96296.19;5007417;28;20052;-71
2021/06/12 04:34:59;;;;;;;10.38;8.75;;;17.80;75.00;;;16.51;72.44;96292.06;5014582;28;20102;-71
2021/06/12 04:37:25;;;;;;;11.25;10.05;;;17.80;74.90;;;16.58;73.27;96291.19;5013496;28;20032;-71
2021/06/12 04:39:51;;;;;;;12.20;8.65;;;17.80;74.40;;;16.61;73.18;96302.19;5014333;28;20484;-70
2021/06/12 04:42:16;;;;;;;9.32;7.47;;;17.80;74.40;;;16.65;72.71;96300.69;4990676;28;20514;-70
2021/06/12 04:44:42;;;;;;;9.63;7.68;;;17.90;74.50;;;16.74;72.40;96302.03;4978561;28;20084;-71
2021/06/12 04:47:08;;;;;;;8.80;7.25;;;18.10;74.10;;;16.81;72.18;96296.66;4986054;28;20437;-72
2021/06/12 04:49:34;;;;;;;7.97;6.82;;;18.20;73.50;;;16.88;72.99;96297.38;5014365;28;20038;-70
2021/06/12 04:52:00;;;;;;;13.98;7.97;;;18.30;73.60;;;16.93;72.75;96302.03;4998418;28;20026;-72
2021/06/12 04:54:25;;;;;;;11.43;7.32;;;18.20;73.20;;;16.96;72.63;96299.72;5014238;28;20353;-71
2021/06/12 04:56:51;;;;;;;8.25;6.78;;;18.30;73.50;;;16.99;72.19;96303.81;5014422;28;20112;-71
2021/06/12 04:59:17;;;;;;;7.95;7.15;;;18.20;73.60;;;17.04;72.60;96295.97;4998188;28;20029;-71
2021/06/12 05:01:43;;;;;;;12.95;9.80;;;18.40;73.50;;;17.08;72.33;96294.47;5013982;28;20029;-70
2021/06/12 05:04:08;;;;;;;9.98;8.98;;;18.40;73.20;;;17.15;72.27;96309.28;5011406;28;20084;-70
2021/06/12 05:06:34;;;;;;;9.20;7.53;;;18.60;73.10;;;17.22;72.12;96305.75;5011149;28;20041;-71
2021/06/12 05:09:00;;;;;;;10.88;7.47;;;18.60;72.70;;;17.24;71.70;96307.16;4994136;28;20084;-71
2021/06/12 05:11:27;;;;;;;9.00;7.38;;;18.60;72.40;;;17.29;71.72;96301.16;5010992;28;20156;-70
2021/06/12 05:13:53;;;;;;;7.20;6.57;;;18.60;72.80;;;17.38;71.93;96302.44;5011367;28;20030;-71
2021/06/12 05:16:18;;;;;;;8.50;6.53;;;18.80;72.60;;;17.44;71.85;96304.22;5007326;28;20041;-70
2021/06/12 05:18:45;;;;;;;7.20;6.50;;;18.90;71.90;;;17.51;71.74;96301.44;4993954;28;20117;-70
2021/06/12 05:21:14;;;;;;;9.05;6.20;;;18.90;71.00;;;17.58;71.67;96300.31;4994774;28;20368;-70
2021/06/12 05:23:39;;;;;;;8.10;6.10;;;19.10;71.00;;;17.67;71.04;96299.00;4994556;28;20025;-70
2021/06/12 05:26:06;;;;;;;7.65;6.38;;;19.20;70.60;;;17.75;70.90;96300.50;5008721;28;20029;-70
2021/06/12 05:28:32;;;;;;;6.65;5.90;;;19.20;70.40;;;17.86;70.59;96302.34;5013350;28;20525;-71
2021/06/12 05:30:58;;;;;;;6.85;6.07;;;19.40;70.20;;;17.97;70.64;96300.75;5012966;28;20167;-70
2021/06/12 05:33:24;;;;;;;8.02;7.13;;;19.50;69.90;;;18.05;70.18;96295.06;5013672;28;20017;-70
2021/06/12 05:35:55;;;;;;;8.90;7.30;;;19.50;69.20;;;18.13;69.43;96299.28;5014044;28;20061;-71
2021/06/12 05:38:21;;;;;;;9.23;6.25;;;19.60;68.70;;;18.24;69.55;96303.78;5014004;28;20200;-69
2021/06/12 05:40:47;;;;;;;7.00;6.25;;;19.90;68.30;;;18.39;68.84;96303.31;5012782;28;20057;-70
2021/06/12 05:43:13;;;;;;;7.55;6.38;;;20.20;66.60;;;18.51;68.83;96306.75;5002353;28;20219;-70
2021/06/12 05:45:38;;;;;;;10.40;8.82;;;20.40;65.90;;;18.64;69.26;96309.22;5000820;28;20108;-70
2021/06/12 05:48:05;;;;;;;6.32;5.50;;;20.70;65.70;;;18.78;68.76;96313.22;5013517;28;20040;-70
2021/06/12 05:50:31;;;;;;;6.93;5.60;;;20.80;64.60;;;18.88;68.49;96300.13;5016139;28;20030;-69
2021/06/12 05:52:56;;;;;;;7.88;5.68;;;20.70;63.60;;;18.98;67.39;96302.97;4993451;28;20045;-70
2021/06/12 05:55:22;;;;;;;7.38;6.38;;;21.10;63.70;;;19.13;67.38;96304.34;4997551;28;20112;-69
2021/06/12 05:57:48;;;;;;;7.53;6.55;;;21.20;63.20;;;19.25;67.55;96297.09;5013791;28;20041;-71
2021/06/12 06:00:15;;;;;;;7.22;5.80;;;21.40;62.80;;;19.40;66.88;96301.88;5009948;28;20188;-70
2021/06/12 06:02:40;;;;;;;6.20;5.50;;;21.60;62.40;;;19.51;67.08;96301.84;5008699;28;20497;-70
2021/06/12 06:05:07;;;;;;;7.72;5.63;;;21.60;62.00;;;19.65;66.21;96301.56;5007002;28;20128;-70
2021/06/12 06:07:33;;;;;;;5.78;5.20;;;21.80;61.30;;;19.78;65.49;96296.72;4977584;28;20030;-72
2021/06/12 06:09:58;;;;;;;7.57;5.90;;;21.90;60.80;;;19.90;65.62;96283.28;5000634;28;20392;-71
2021/06/12 06:12:24;;;;;;;6.50;5.80;;;22.00;59.40;;;20.04;65.01;96295.28;5029106;28;20148;-73
2021/06/12 06:14:50;;;;;;;5.75;5.07;;;22.20;59.40;;;20.16;64.73;96287.19;5015878;28;20034;-71
2021/06/12 06:17:16;;;;;;;5.93;5.05;;;22.40;59.90;;;20.30;65.00;96291.09;4977142;28;20122;-72
2021/06/12 06:19:41;;;;;;;6.97;5.35;;;22.60;58.10;;;20.46;64.77;96292.19;4981318;28;20036;-73
2021/06/12 06:22:07;;;;;;;5.95;5.22;;;22.80;58.80;;;20.61;64.56;96288.91;5012640;28;20558;-69
2021/06/12 06:24:33;;;;;;;7.95;5.95;;;23.00;58.10;;;20.75;63.48;96292.81;5009297;28;20535;-75
2021/06/12 06:26:59;;;;;;;6.88;5.03;;;23.10;56.60;;;20.84;63.44;96293.22;4999600;28;20029;-71
2021/06/12 06:29:24;;;;;;;7.25;4.78;;;23.00;56.70;;;20.97;62.47;96298.16;5010390;28;20175;-69
2021/06/12 06:31:50;;;;;;;5.78;5.18;;;23.20;57.10;;;21.07;61.74;96298.31;4984401;28;20033;-71
2021/06/12 06:34:16;;;;;;;5.85;5.22;;;23.40;54.80;;;21.18;61.14;96299.22;4995579;28;20120;-72
2021/06/12 06:36:42;;;;;;;6.78;5.55;;;23.50;54.40;;;21.30;61.03;96303.41;5009514;28;20121;-72
2021/06/12 06:39:07;;;;;;;7.28;6.28;;;23.70;55.10;;;21.46;61.38;96303.53;5008834;28;20470;-69
2021/06/12 06:41:33;;;;;;;7.10;5.32;;;24.00;54.40;;;21.58;60.53;96305.00;4981945;28;20481;-70
2021/06/12 06:43:59;;;;;;;7.97;4.57;;;24.00;53.30;;;21.74;60.73;96310.53;5012603;28;20030;-69
2021/06/12 06:46:25;;;;;;;5.72;4.40;;;24.10;54.00;;;21.92;60.59;96305.56;5011263;28;20136;-68
2021/06/12 06:48:51;;;;;;;6.40;4.95;;;24.40;53.60;;;22.04;59.59;96307.28;5007324;28;20034;-68
2021/06/12 06:51:17;;;;;;;11.55;8.52;;;24.30;52.50;;;22.16;59.54;96305.25;4976514;28;20109;-69
2021/06/12 06:53:43;;;;;;;7.35;6.03;;;24.50;52.00;;;22.27;59.08;96306.94;4992825;28;20397;-69
2021/06/12 06:56:08;;;;;;;7.28;4.85;;;24.50;52.00;;;22.37;58.49;96301.63;5003540;28;20114;-69
2021/06/12 06:58:34;;;;;;;6.72;4.65;;;24.60;52.10;;;22.47;57.89;96291.00;4979476;28;20805;-66
2021/06/12 07:01:00;;;;;;;6.70;5.15;;;24.60;50.90;;;22.54;57.53;96304.16;4993555;28;20626;-71
2021/06/12 07:03:26;;;;;;;5.55;4.90;;;24.60;51.20;;;22.62;57.33;96293.75;5009080;28;20084;-71
2021/06/12 07:05:53;;;;;;;7.28;5.70;;;24.80;50.70;;;22.73;56.70;96299.97;5008963;28;20409;-71
2021/06/12 07:08:19;;;;;;;5.90;5.25;;;25.00;49.40;;;22.75;56.72;96292.47;4992539;28;20030;-73
2021/06/12 07:10:44;;;;;;;6.55;5.35;;;25.00;50.40;;;22.88;56.78;96299.28;4991366;28;20058;-72
2021/06/12 07:13:10;;;;;;;6.70;4.90;;;25.30;51.00;;;23.01;56.79;96301.47;4992850;28;20157;-73
2021/06/12 07:15:36;;;;;;;5.68;4.82;;;25.60;48.90;;;23.14;55.74;96297.50;5014145;28;20182;-73
2021/06/12 07:18:02;;;;;;;5.60;4.80;;;25.60;48.90;;;23.22;55.87;96305.84;5011544;28;20033;-72
2021/06/12 07:20:27;;;;;;;7.93;5.15;;;25.60;49.40;;;23.27;55.23;96294.31;5012036;28;20393;-73
2021/06/12 07:22:55;;;;;;;5.47;4.90;;;25.60;48.10;;;23.38;55.11;96295.16;5011804;28;20120;-73
2021/06/12 07:25:20;;;;;;;8.57;6.40;;;25.80;48.80;;;23.54;55.20;96294.13;5011691;28;20060;-72
2021/06/12 07:27:46;;;;;;;7.05;5.13;;;26.30;47.90;;;23.67;55.38;96293.63;4979206;28;20102;-71
2021/06/12 07:30:13;;;;;;;7.65;5.30;;;26.40;46.70;;;23.79;54.12;96285.31;5011191;28;20029;-72
2021/06/12 07:32:38;;;;;;;7.28;5.70;;;26.40;46.20;;;23.86;54.48;96285.84;4994872;28;20029;-71
2021/06/12 07:35:05;;;;;;;7.43;5.55;;;26.60;46.70;;;23.94;54.11;96287.19;5012376;28;20357;-72
2021/06/12 07:37:30;;;;;;;6.97;5.28;;;26.40;46.30;;;23.97;53.60;96289.31;4995600;28;20026;-72
2021/06/12 07:39:56;;;;;;;8.70;7.57;;;26.30;46.00;;;24.04;53.27;96285.31;5010582;28;20215;-71
2021/06/12 07:42:22;;;;;;;7.90;7.10;;;26.90;46.10;;;24.24;53.14;96286.38;4995478;28;20512;-72
2021/06/12 07:44:48;;;;;;;8.13;5.70;;;27.30;45.10;;;24.47;53.32;96285.03;4991422;28;20125;-72
2021/06/12 07:47:13;;;;;;;7.93;5.25;;;27.70;44.80;;;24.64;53.13;96288.19;5008173;28;20120;-72
2021/06/12 07:49:39;;;;;;;7.43;5.32;;;27.80;43.70;;;24.77;52.46;96284.91;4991512;28;20064;-72
2021/06/12 07:52:05;;;;;;;6.00;4.78;;;28.00;43.10;;;24.96;52.54;96288.63;4992333;28;20040;-72
2021/06/12 07:54:31;;;;;;;6.85;4.90;;;28.20;44.50;;;25.17;52.35;96292.06;4992209;28;20026;-73
2021/06/12 07:56:57;;;;;;;6.82;5.47;;;28.60;43.50;;;25.38;51.78;96295.47;4991767;28;20069;-72
2021/06/12 07:59:22;;;;;;;5.93;5.32;;;28.60;42.00;;;25.50;51.31;96287.81;4999565;28;20021;-72
2021/06/12 08:01:48;;;;;;;7.85;5.10;;;28.80;41.90;;;25.66;51.12;96291.22;4995461;28;20080;-72
2021/06/12 08:04:14;;;;;;;8.32;5.85;;;28.80;42.40;;;25.86;51.26;96287.63;5011953;28;20575;-72
2021/06/12 08:06:40;;;;;;;12.52;10.50;;;29.20;42.80;;;26.09;51.14;96284.19;4994696;28;20116;-72
2021/06/12 08:09:06;;;;;;;6.50;5.40;;;29.60;42.30;;;26.36;51.29;96288.28;5011599;28;20029;-73
2021/06/12 08:11:31;;;;;;;6.45;5.43;;;29.80;41.90;;;26.63;50.69;96276.94;5012548;28;20033;-73
2021/06/12 08:13:57;;;;;;;4.88;4.35;;;30.10;41.50;;;26.89;50.57;96277.47;5011682;28;20761;-72
2021/06/12 08:16:23;;;;;;;7.07;5.32;;;30.30;40.30;;;27.07;49.84;96282.13;5010019;28;20026;-69
2021/06/12 08:18:49;;;;;;;8.02;5.55;;;30.10;40.00;;;27.33;49.34;96286.09;4998893;28;20278;-69
2021/06/12 08:21:15;;;;;;;6.93;5.35;;;30.80;39.70;;;27.66;48.56;96272.72;4980818;28;20546;-71
2021/06/12 08:23:40;;;;;;;6.75;4.38;;;31.00;36.90;;;27.88;47.20;96281.00;4995125;28;20026;-71
2021/06/12 08:26:06;;;;;;;7.20;4.40;;;31.10;37.00;;;28.02;46.62;96275.63;5008777;28;20460;-71
2021/06/12 08:28:32;;;;;;;4.88;4.38;;;30.70;37.70;;;28.13;46.19;96276.28;5010136;28;20033;-69
2021/06/12 08:30:58;;;;;;;14.77;9.77;;;30.80;36.80;;;28.33;44.97;96275.97;4997111;28;20087;-70
2021/06/12 08:33:24;;;;;;;6.68;4.40;;;31.30;36.30;;;28.48;44.31;96272.97;4997240;28;20029;-68
2021/06/12 08:35:50;;;;;;;4.78;4.32;;;31.20;35.40;;;28.59;43.82;96279.81;4998131;28;20057;-69
2021/06/12 08:38:15;;;;;;;5.85;4.70;;;30.90;35.60;;;28.62;43.13;96284.63;5014260;28;20056;-66
2021/06/12 08:40:41;;;;;;;5.00;4.50;;;31.00;35.90;;;28.67;43.82;96279.09;5013153;28;20562;-67
2021/06/12 08:43:07;;;;;;;5.55;4.95;;;31.30;37.30;;;28.87;43.63;96269.00;5031265;28;20037;-68
2021/06/12 08:45:33;;;;;;;5.20;4.32;;;31.70;36.10;;;29.10;43.21;96273.41;5014056;28;20108;-69
2021/06/12 08:48:00;;;;;;;5.78;3.97;;;32.00;35.50;;;29.18;42.61;96266.47;5014139;28;20396;-68
2021/06/12 08:50:26;;;;;;;5.22;4.57;;;31.60;35.90;;;29.16;42.67;96274.91;5013607;28;20029;-69
2021/06/12 08:52:53;;;;;;;5.78;4.80;;;31.30;36.80;;;29.19;42.16;96276.19;5014058;28;20085;-68
2021/06/12 08:55:19;;;;;;;7.68;6.72;;;31.50;35.90;;;29.27;41.88;96273.59;5014086;28;20023;-68
2021/06/12 08:57:45;;;;;;;7.05;4.95;;;31.70;36.00;;;29.32;41.41;96280.78;5014643;28;20060;-68
2021/06/12 09:00:12;;;;;;;6.93;5.75;;;31.60;34.80;;;29.32;41.40;96280.00;5009725;28;20062;-68
2021/06/12 09:03:10;;;;;;;4.93;4.38;;;31.50;36.20;;;29.21;39.45;96288.34;4993888;28;20046;-68
2021/06/12 09:05:56;;;;;;;4.85;4.30;;;31.20;35.20;;;29.15;40.65;96283.31;4996074;28;20042;-70
2021/06/12 09:08:24;;;;;;;4.68;4.25;;;31.30;36.60;;;29.22;41.58;96281.03;4994171;28;20038;-67
2021/06/12 09:10:56;;;;;;;8.40;4.97;;;31.50;36.10;;;29.31;40.84;96278.41;4993106;28;20102;-68
2021/06/12 09:14:01;;;;;;;5.38;4.78;;;31.70;35.70;;;29.54;39.60;96288.22;5024736;28;20053;-67
2021/06/12 09:16:32;;;;;;;8.13;4.65;;;32.30;34.60;;;29.67;40.63;96289.28;5005395;28;20056;-69
2021/06/12 09:19:14;;;;;;;7.65;4.65;;;32.00;35.00;;;29.36;39.20;96281.00;5010823;28;20536;-70
2021/06/12 09:21:44;;;;;;;6.38;5.80;;;30.90;36.70;;;29.21;41.22;96280.22;5010265;28;20052;-67
2021/06/12 09:24:42;;;;;;;9.73;5.20;;;30.90;37.60;;;29.23;40.18;96283.44;5017163;28;20049;-66
2021/06/12 09:27:14;;;;;;;6.35;4.60;;;31.20;36.20;;;29.28;40.19;96275.19;4995279;28;20104;-69
2021/06/12 09:29:51;;;;;;;14.27;8.75;;;31.50;36.40;;;29.28;40.77;96275.19;4971662;28;20045;-67
2021/06/12 09:32:22;;;;;;;10.23;7.30;;;31.40;36.70;;;29.43;40.21;96276.78;4993931;28;20026;-67
2021/06/12 09:34:50;;;;;;;7.00;5.00;;;31.80;36.50;;;29.57;40.58;96276.75;5002964;28;20025;-69
2021/06/12 09:37:25;;;;;;;5.88;4.45;;;32.10;36.00;;;29.80;39.10;96277.56;5030439;28;20064;-68
2021/06/12 09:40:01;;;;;;;5.57;4.70;;;32.40;33.80;;;29.94;39.65;96274.81;5028314;28;20041;-68
2021/06/12 09:42:56;;;;;;;5.63;5.13;;;32.30;34.90;;;30.07;39.21;96268.53;4993863;28;20120;-68
2021/06/12 09:45:32;;;;;;;5.10;4.32;;;32.30;34.70;;;30.19;39.01;96271.50;5000673;28;20029;-67
2021/06/12 09:48:19;;;;;;;6.28;4.38;;;32.50;33.50;;;30.48;37.85;96279.97;5004986;28;20117;-69
2021/06/12 09:50:47;;;;;;;4.93;4.40;;;33.10;33.40;;;30.53;37.46;96270.88;5009660;28;20030;-69
2021/06/12 09:53:21;;;;;;;5.25;4.45;;;32.70;31.80;;;30.61;36.10;96270.16;4999556;28;20026;-66
2021/06/12 09:55:47;;;;;;;5.68;4.30;;;33.00;31.30;;;30.69;37.20;96263.16;4978703;28;20026;-69
2021/06/12 09:58:13;;;;;;;4.90;4.40;;;33.10;32.00;;;30.75;37.61;96272.75;5005432;28;20086;-69
2021/06/12 10:00:46;;;;;;;5.63;5.00;;;33.10;32.30;;;30.82;36.36;96273.13;4976083;28;20038;-69
2021/06/12 10:03:28;;;;;;;7.20;4.70;;;33.20;31.90;;;31.12;35.32;96262.50;5004871;28;20461;-70
2021/06/12 10:06:16;;;;;;;6.85;4.28;;;33.70;30.60;;;31.25;34.27;96269.75;4989668;28;20120;-70
2021/06/12 10:08:42;;;;;;;8.00;4.53;;;33.70;30.60;;;31.47;35.57;96269.63;5006670;28;20034;-69
2021/06/12 10:11:08;;;;;;;5.13;4.63;;;33.80;30.20;;;31.66;36.05;96267.38;5011714;28;20044;-69
2021/06/12 10:13:34;;;;;;;5.53;4.03;;;33.90;31.20;;;31.81;35.92;96270.75;4979374;28;20121;-67
2021/06/12 10:16:00;;;;;;;4.75;4.20;;;34.20;31.80;;;32.06;35.38;96278.09;5013044;28;20030;-67
2021/06/12 10:18:26;;;;;;;5.20;4.43;;;34.50;29.30;;;32.15;34.97;96276.19;5008484;28;20038;-67
2021/06/12 10:20:52;;;;;;;5.88;3.80;;;34.60;30.30;;;32.52;34.92;96273.84;4999421;28;20120;-67